createdAt,value
2018-06-02T00:00:08.292Z,7.00
2018-06-02T00:02:35.700Z,6.65
2018-06-02T00:05:03.245Z,8.13
2018-06-02T00:07:31.431Z,6.20
2018-06-02T00:09:58.897Z,7.80
2018-06-02T00:12:26.323Z,10.35
2018-06-02T00:14:53.838Z,15.82
2018-06-02T00:17:21.254Z,6.80
2018-06-02T00:19:48.772Z,9.07
2018-06-02T00:22:16.186Z,9.52
2018-06-02T00:24:43.600Z,10.85
2018-06-02T00:27:11.780Z,7.30
2018-06-02T00:29:39.997Z,9.30
2018-06-02T00:32:08.149Z,7.40
2018-06-02T00:34:36.337Z,7.25
2018-06-02T00:37:04.660Z,8.73
2018-06-02T00:39:32.829Z,6.80
2018-06-02T00:42:01.029Z,10.88
2018-06-02T00:44:28.454Z,9.93
2018-06-02T00:46:55.862Z,10.65
2018-06-02T00:49:23.282Z,6.30
2018-06-02T00:51:50.694Z,7.70
2018-06-02T00:54:30.558Z,5.62
2018-06-02T00:56:58.042Z,9.98
2018-06-02T00:59:25.507Z,7.65
2018-06-02T01:01:52.926Z,7.18
2018-06-02T01:04:20.341Z,7.95
2018-06-02T01:06:47.813Z,11.32
2018-06-02T01:09:15.233Z,7.78
2018-06-02T01:11:48.569Z,7.20
2018-06-02T01:14:16.748Z,8.15
2018-06-02T01:16:44.933Z,9.70
2018-06-02T01:19:12.344Z,10.95
2018-06-02T01:21:39.765Z,9.27
2018-06-02T01:24:07.174Z,8.20
2018-06-02T01:26:34.752Z,6.70
2018-06-02T01:29:02.910Z,9.85
2018-06-02T01:31:31.089Z,6.43
2018-06-02T01:33:58.500Z,9.02
2018-06-02T01:36:26.068Z,10.65
2018-06-02T01:38:54.249Z,7.82
2018-06-02T01:41:21.669Z,7.87
2018-06-02T01:43:49.091Z,6.93
2018-06-02T01:46:16.505Z,9.70
2018-06-02T01:48:43.917Z,7.55
2018-06-02T01:51:11.337Z,6.12
2018-06-02T01:53:38.744Z,7.90
2018-06-02T01:56:06.953Z,8.88
2018-06-02T01:58:34.364Z,7.10
2018-06-02T02:01:01.785Z,10.05
2018-06-02T02:03:29.261Z,10.57
2018-06-02T02:05:56.690Z,11.90
2018-06-02T02:08:24.205Z,10.98
2018-06-02T02:10:52.360Z,9.82
2018-06-02T02:13:20.579Z,10.80
2018-06-02T02:15:49.121Z,8.63
2018-06-02T02:18:16.537Z,8.80
2018-06-02T02:20:43.958Z,8.18
2018-06-02T02:23:11.375Z,8.95
2018-06-02T02:25:38.788Z,9.18
2018-06-02T02:28:06.199Z,8.13
2018-06-02T02:30:34.390Z,10.68
2018-06-02T02:33:01.809Z,10.98
2018-06-02T02:35:29.234Z,10.38
2018-06-02T02:37:56.715Z,11.60
2018-06-02T02:40:24.186Z,11.03
2018-06-02T02:42:52.344Z,8.90
2018-06-02T02:45:20.560Z,9.23
2018-06-02T02:47:48.746Z,7.43
2018-06-02T02:50:16.911Z,6.97
2018-06-02T02:52:45.120Z,9.05
2018-06-02T02:55:13.277Z,7.47
2018-06-02T02:57:41.457Z,9.52
2018-06-02T03:00:08.880Z,7.53
2018-06-02T03:02:36.298Z,11.60
2018-06-02T03:05:04.514Z,9.73
2018-06-02T03:07:31.976Z,15.20
2018-06-02T03:09:59.458Z,12.48
2018-06-02T03:12:26.886Z,17.58
2018-06-02T03:14:54.307Z,11.82
2018-06-02T03:17:21.733Z,14.13
2018-06-02T03:19:49.149Z,8.55
2018-06-02T03:22:16.606Z,11.60
2018-06-02T03:24:44.765Z,9.02
2018-06-02T03:27:12.972Z,9.05
2018-06-02T03:29:40.380Z,8.02
2018-06-02T03:32:07.800Z,7.75
2018-06-02T03:34:35.976Z,7.00
2018-06-02T03:37:04.184Z,10.80
2018-06-02T03:39:31.605Z,14.15
2018-06-02T03:41:59.130Z,15.40
2018-06-02T03:44:26.602Z,13.20
2018-06-02T03:46:54.029Z,12.55
2018-06-02T03:49:21.536Z,9.40
2018-06-02T03:51:48.971Z,10.95
2018-06-02T03:54:16.481Z,11.75
2018-06-02T03:56:43.903Z,7.85
2018-06-02T03:59:11.529Z,10.27
2018-06-02T04:01:39.697Z,11.90
2018-06-02T04:04:07.108Z,11.90
2018-06-02T04:06:34.529Z,8.85
2018-06-02T04:09:02.739Z,10.57
2018-06-02T04:11:30.149Z,13.18
2018-06-02T04:13:57.579Z,8.65
2018-06-02T04:16:26.577Z,9.30
2018-06-02T04:18:54.057Z,10.35
2018-06-02T04:21:21.469Z,9.85
2018-06-02T04:23:48.885Z,8.82
2018-06-02T04:26:16.671Z,12.15
2018-06-02T04:28:44.828Z,12.90
2018-06-02T04:31:13.025Z,10.85
2018-06-02T04:33:41.237Z,10.32
2018-06-02T04:36:08.750Z,10.63
2018-06-02T04:38:36.164Z,15.23
2018-06-02T04:41:03.648Z,10.05
2018-06-02T04:43:31.064Z,11.93
2018-06-02T04:45:58.684Z,10.80
2018-06-02T04:48:26.842Z,10.02
2018-06-02T04:50:55.029Z,10.05
2018-06-02T04:53:23.218Z,9.95
2018-06-02T04:55:51.429Z,9.98
2018-06-02T04:58:18.841Z,12.88
2018-06-02T05:00:46.256Z,11.77
2018-06-02T05:03:13.749Z,14.93
2018-06-02T05:05:41.924Z,9.63
2018-06-02T05:08:09.336Z,18.27
2018-06-02T05:10:36.869Z,10.85
2018-06-02T05:13:05.028Z,13.52
2018-06-02T05:15:33.246Z,11.50
2018-06-02T05:18:01.409Z,9.93
2018-06-02T05:20:29.592Z,12.00
2018-06-02T05:22:57.779Z,8.82
2018-06-02T05:25:25.990Z,10.85
2018-06-02T05:27:53.417Z,19.12
2018-06-02T05:30:20.824Z,7.43
2018-06-02T05:32:48.249Z,8.70
2018-06-02T05:35:15.784Z,12.45
2018-06-02T05:37:43.957Z,11.80
2018-06-02T05:40:11.394Z,13.27
2018-06-02T05:42:38.897Z,10.95
2018-06-02T05:45:06.366Z,9.35
2018-06-02T05:47:33.840Z,13.68
2018-06-02T05:50:02.002Z,12.75
2018-06-02T05:52:30.241Z,12.60
2018-06-02T05:54:57.632Z,11.60
2018-06-02T05:57:25.061Z,11.07
2018-06-02T05:59:52.528Z,13.38
2018-06-02T06:02:19.937Z,8.02
2018-06-02T06:04:47.352Z,11.27
2018-06-02T06:07:14.825Z,8.55
2018-06-02T06:09:43.141Z,9.65
2018-06-02T06:12:10.565Z,9.75
2018-06-02T06:14:38.773Z,8.48
2018-06-02T06:17:06.237Z,9.23
2018-06-02T06:19:33.772Z,16.87
2018-06-02T06:22:01.129Z,7.65
2018-06-02T06:24:28.652Z,12.55
2018-06-02T06:26:56.107Z,10.90
2018-06-02T06:29:23.506Z,8.98
2018-06-02T06:31:50.978Z,10.23
2018-06-02T06:34:18.396Z,10.57
2018-06-02T06:36:45.914Z,11.30
2018-06-02T06:39:13.378Z,7.97
2018-06-02T06:41:40.855Z,9.00
2018-06-02T06:44:08.259Z,8.20
2018-06-02T06:46:35.724Z,8.85
2018-06-02T06:49:03.089Z,8.60
2018-06-02T06:51:30.528Z,8.05
2018-06-02T06:53:58.001Z,9.85
2018-06-02T06:56:25.412Z,9.07
2018-06-02T06:58:52.933Z,14.20
2018-06-02T07:01:20.511Z,8.30
2018-06-02T07:03:48.693Z,9.50
2018-06-02T07:06:16.165Z,12.95
2018-06-02T07:08:43.585Z,10.80
2018-06-02T07:11:11.015Z,17.50
2018-06-02T07:13:38.453Z,11.70
2018-06-02T07:16:06.636Z,9.75
2018-06-02T07:18:34.817Z,10.23
2018-06-02T07:21:02.999Z,8.57
2018-06-02T07:23:30.421Z,9.77
2018-06-02T07:25:57.833Z,10.98
2018-06-02T07:28:25.254Z,10.30
2018-06-02T07:30:52.713Z,8.38
2018-06-02T07:33:20.183Z,10.45
2018-06-02T07:35:47.599Z,9.93
2018-06-02T07:38:15.128Z,8.25
2018-06-02T07:40:42.584Z,10.23
2018-06-02T07:43:10.000Z,8.55
2018-06-02T07:45:37.430Z,9.18
2018-06-02T07:48:04.901Z,8.65
2018-06-02T07:50:33.068Z,10.10
2018-06-02T07:53:01.276Z,9.07
2018-06-02T07:55:28.745Z,7.57
2018-06-02T07:57:56.213Z,12.07
2018-06-02T08:00:23.621Z,9.15
2018-06-02T08:02:51.053Z,9.32
2018-06-02T08:05:18.517Z,12.98
2018-06-02T08:07:46.000Z,12.05
2018-06-02T08:10:13.466Z,11.12
2018-06-02T08:12:40.889Z,9.82
2018-06-02T08:15:09.836Z,10.38
2018-06-02T08:17:37.261Z,10.90
2018-06-02T08:20:04.673Z,14.40
2018-06-02T08:22:32.097Z,15.32
2018-06-02T08:24:59.613Z,9.02
2018-06-02T08:27:27.032Z,11.65
2018-06-02T08:29:54.549Z,11.68
2018-06-02T08:32:22.021Z,10.55
2018-06-02T08:34:49.498Z,16.65
2018-06-02T08:37:16.928Z,11.12
2018-06-02T08:39:44.341Z,8.23
2018-06-02T08:42:11.752Z,8.15
2018-06-02T08:44:39.236Z,9.63
2018-06-02T08:47:06.741Z,12.40
2018-06-02T08:49:34.213Z,11.70
2018-06-02T08:52:01.686Z,10.85
2018-06-02T08:54:29.221Z,10.82
2018-06-02T08:56:56.569Z,11.00
2018-06-02T08:59:23.980Z,10.70
2018-06-02T09:01:51.460Z,7.18
2018-06-02T09:04:18.882Z,11.75
2018-06-02T09:06:47.122Z,7.57
2018-06-02T09:09:14.529Z,8.73
2018-06-02T09:11:42.057Z,12.88
2018-06-02T09:14:09.529Z,9.52
2018-06-02T09:16:37.012Z,9.88
2018-06-02T09:19:04.475Z,11.95
2018-06-02T09:21:31.881Z,9.32
2018-06-02T09:23:59.305Z,12.20
2018-06-02T09:26:26.716Z,10.15
2018-06-02T09:28:54.138Z,10.25
2018-06-02T09:31:21.553Z,9.27
2018-06-02T09:33:48.981Z,8.63
2018-06-02T09:36:16.400Z,7.40
2018-06-02T09:38:43.853Z,7.72
2018-06-02T09:41:11.300Z,7.10
2018-06-02T09:43:39.486Z,10.35
2018-06-02T09:46:06.895Z,4.40
2018-06-02T09:48:34.309Z,8.10
2018-06-02T09:51:02.489Z,8.45
2018-06-02T09:53:30.689Z,5.87
2018-06-02T09:55:58.102Z,7.62
2018-06-02T09:58:25.534Z,6.55
2018-06-02T10:00:52.952Z,6.60
2018-06-02T10:03:20.374Z,5.62
2018-06-02T10:05:47.838Z,4.62
2018-06-02T10:08:15.261Z,6.32
2018-06-02T10:10:42.667Z,6.65
2018-06-02T10:13:10.093Z,6.35
2018-06-02T10:15:37.526Z,6.05
2018-06-02T10:18:04.945Z,4.80
2018-06-02T10:20:33.129Z,6.57
2018-06-02T10:23:00.556Z,4.30
2018-06-02T10:25:27.969Z,4.32
2018-06-02T10:27:55.487Z,6.10
2018-06-02T10:30:23.669Z,4.93
2018-06-02T10:32:51.143Z,6.10
2018-06-02T10:35:18.611Z,4.57
2018-06-02T10:37:46.187Z,7.32
2018-06-02T10:40:14.349Z,4.93
2018-06-02T10:42:42.664Z,4.70
2018-06-02T10:45:10.847Z,4.00
2018-06-02T10:47:38.310Z,5.40
2018-06-02T10:50:05.793Z,5.60
2018-06-02T10:52:33.197Z,4.53
2018-06-02T10:55:00.631Z,7.22
2018-06-02T10:57:28.101Z,10.60
2018-06-02T10:59:56.266Z,10.98
2018-06-02T11:02:24.474Z,5.65
2018-06-02T11:04:51.901Z,4.87
2018-06-02T11:07:19.305Z,5.37
2018-06-02T11:09:46.720Z,4.20
2018-06-02T11:12:14.136Z,4.25
2018-06-02T11:14:41.625Z,9.10
2018-06-02T11:17:09.016Z,5.18
2018-06-02T11:19:36.548Z,4.28
2018-06-02T11:22:04.613Z,6.30
2018-06-02T11:24:32.795Z,4.60
2018-06-02T11:27:00.214Z,4.40
2018-06-02T11:29:27.654Z,3.70
2018-06-02T11:31:55.820Z,5.43
2018-06-02T11:34:24.014Z,5.62
2018-06-02T11:36:52.198Z,3.83
2018-06-02T11:39:19.613Z,4.82
2018-06-02T11:41:47.028Z,4.30
2018-06-02T11:44:14.519Z,3.65
2018-06-02T11:46:42.698Z,3.55
2018-06-02T11:49:10.121Z,4.22
2018-06-02T11:51:37.541Z,4.03
2018-06-02T11:54:05.767Z,3.62
2018-06-02T11:56:33.178Z,3.90
2018-06-02T11:59:00.694Z,4.70
2018-06-02T12:01:28.860Z,5.80
2018-06-02T12:03:57.046Z,2.80
2018-06-02T12:06:25.249Z,2.70
2018-06-02T12:08:52.652Z,3.05
2018-06-02T12:11:20.094Z,3.03
2018-06-02T12:13:47.523Z,2.83
2018-06-02T12:16:14.932Z,3.80
2018-06-02T12:18:42.411Z,3.20
2018-06-02T12:21:09.872Z,4.05
2018-06-02T12:23:37.284Z,5.07
2018-06-02T12:26:04.698Z,2.92
2018-06-02T12:28:32.124Z,2.58
2018-06-02T12:30:59.533Z,4.87
2018-06-02T12:33:26.947Z,3.90
2018-06-02T12:35:54.364Z,3.00
2018-06-02T12:38:22.563Z,2.55
2018-06-02T12:40:49.983Z,3.92
2018-06-02T12:43:17.396Z,4.20
2018-06-02T12:45:44.933Z,2.80
2018-06-02T12:48:12.352Z,2.80
2018-06-02T12:50:39.781Z,3.03
2018-06-02T12:53:07.302Z,5.50
2018-06-02T12:55:34.708Z,3.53
2018-06-02T12:58:02.230Z,2.78
2018-06-02T13:00:29.640Z,3.15
2018-06-02T13:02:57.161Z,3.10
2018-06-02T13:05:24.578Z,4.75
2018-06-02T13:07:52.005Z,2.50
2018-06-02T13:10:19.481Z,3.15
2018-06-02T13:12:46.956Z,2.70
2018-06-02T13:15:14.369Z,6.55
2018-06-02T13:17:41.793Z,2.30
2018-06-02T13:20:09.210Z,2.35
2018-06-02T13:22:36.633Z,3.95
2018-06-02T13:25:04.045Z,3.30
2018-06-02T13:27:31.564Z,2.90
2018-06-02T13:29:58.984Z,2.65
2018-06-02T13:32:26.389Z,4.32
2018-06-02T13:34:53.814Z,17.60
2018-06-02T13:37:21.244Z,2.90
2018-06-02T13:39:49.412Z,4.15
2018-06-02T13:42:17.594Z,5.57
2018-06-02T13:44:45.781Z,16.85
2018-06-02T13:47:13.965Z,4.35
2018-06-02T13:49:42.157Z,3.03
2018-06-02T13:52:10.328Z,2.83
2018-06-02T13:54:37.895Z,2.22
2018-06-02T13:57:05.319Z,2.58
2018-06-02T13:59:32.777Z,2.45
2018-06-02T14:02:00.193Z,2.42
2018-06-02T14:04:27.719Z,2.70
2018-06-02T14:06:55.902Z,3.00
2018-06-02T14:09:23.328Z,2.53
2018-06-02T14:11:50.837Z,5.75
2018-06-02T14:14:18.264Z,3.40
2018-06-02T14:16:45.669Z,2.55
2018-06-02T14:19:13.085Z,3.35
2018-06-02T14:21:40.507Z,3.42
2018-06-02T14:24:08.701Z,3.78
2018-06-02T14:26:36.144Z,3.05
2018-06-02T14:29:03.541Z,2.87
2018-06-02T14:31:31.005Z,3.58
2018-06-02T14:33:58.485Z,3.30
2018-06-02T14:36:25.898Z,3.00
2018-06-02T14:38:53.329Z,3.50
2018-06-02T14:41:20.745Z,10.93
2018-06-02T14:43:48.171Z,2.67
2018-06-02T14:46:15.576Z,3.90
2018-06-02T14:48:43.093Z,2.40
2018-06-02T14:51:10.504Z,3.97
2018-06-02T14:53:37.925Z,2.90
2018-06-02T14:56:06.130Z,4.20
2018-06-02T14:58:33.545Z,2.67
2018-06-02T15:01:01.082Z,2.50
2018-06-02T15:03:28.534Z,3.83
2018-06-02T15:05:55.941Z,2.33
2018-06-02T15:08:23.378Z,2.40
2018-06-02T15:10:50.797Z,2.30
2018-06-02T15:13:18.217Z,2.45
2018-06-02T15:15:45.625Z,7.00
2018-06-02T15:18:13.050Z,3.00
2018-06-02T15:20:40.517Z,4.00
2018-06-02T15:23:07.994Z,2.55
2018-06-02T15:25:35.457Z,2.72
2018-06-02T15:28:02.877Z,2.90
2018-06-02T15:30:30.293Z,2.65
2018-06-02T15:32:57.773Z,4.43
2018-06-02T15:35:25.281Z,4.50
2018-06-02T15:37:52.686Z,2.10
2018-06-02T15:40:20.876Z,2.58
2018-06-02T15:42:49.050Z,2.55
2018-06-02T15:45:16.549Z,2.28
2018-06-02T15:47:43.960Z,2.78
2018-06-02T15:50:11.377Z,2.60
2018-06-02T15:52:39.560Z,2.47
2018-06-02T15:55:07.770Z,2.62
2018-06-02T15:57:35.181Z,3.53
2018-06-02T16:00:02.624Z,3.47
2018-06-02T16:02:30.036Z,3.80
2018-06-02T16:04:57.452Z,3.25
2018-06-02T16:07:24.920Z,2.62
2018-06-02T16:09:52.376Z,2.08
2018-06-02T16:12:19.792Z,5.60
2018-06-02T16:14:47.214Z,3.00
2018-06-02T16:17:14.620Z,2.87
2018-06-02T16:19:42.038Z,3.55
2018-06-02T16:22:10.252Z,4.25
2018-06-02T16:24:37.660Z,2.65
2018-06-02T16:27:05.077Z,2.28
2018-06-02T16:29:32.653Z,2.90
2018-06-02T16:32:00.065Z,3.75
2018-06-02T16:34:27.481Z,2.70
2018-06-02T16:36:55.662Z,2.87
2018-06-02T16:39:23.865Z,2.90
2018-06-02T16:41:51.338Z,4.57
2018-06-02T16:44:18.812Z,3.70
2018-06-02T16:46:46.229Z,6.78
2018-06-02T16:49:13.745Z,2.15
2018-06-02T16:51:41.328Z,5.68
2018-06-02T16:54:09.616Z,4.93
2018-06-02T16:56:37.024Z,2.53
2018-06-02T16:59:04.450Z,4.25
2018-06-02T17:01:31.860Z,4.05
2018-06-02T17:03:59.397Z,4.82
2018-06-02T17:06:27.559Z,3.58
2018-06-02T17:08:55.770Z,4.87
2018-06-02T17:11:23.224Z,3.45
2018-06-02T17:13:51.401Z,4.28
2018-06-02T17:16:19.609Z,3.60
2018-06-02T17:18:47.049Z,3.03
2018-06-02T17:21:14.453Z,6.60
2018-06-02T17:23:41.864Z,3.40
2018-06-02T17:26:09.292Z,4.00
2018-06-02T17:28:36.697Z,5.78
2018-06-02T17:31:04.120Z,4.47
2018-06-02T17:33:31.550Z,4.80
2018-06-02T17:35:58.952Z,10.88
2018-06-02T17:38:26.364Z,3.33
2018-06-02T17:40:53.782Z,3.53
2018-06-02T17:43:21.994Z,3.50
2018-06-02T17:45:49.408Z,2.70
2018-06-02T17:48:16.819Z,4.25
2018-06-02T17:50:44.257Z,4.45
2018-06-02T17:53:11.674Z,4.22
2018-06-02T17:55:39.093Z,3.70
2018-06-02T17:58:06.505Z,3.25
2018-06-02T18:00:33.976Z,4.35
2018-06-02T18:03:02.953Z,3.75
2018-06-02T18:05:31.157Z,4.75
2018-06-02T18:07:58.633Z,3.30
2018-06-02T18:10:26.052Z,4.78
2018-06-02T18:12:53.461Z,4.75
2018-06-02T18:15:20.896Z,2.85
2018-06-02T18:17:48.412Z,3.80
2018-06-02T18:20:15.887Z,4.25
2018-06-02T18:22:43.302Z,4.68
2018-06-02T18:25:10.726Z,6.57
2018-06-02T18:27:38.149Z,3.92
2018-06-02T18:30:05.596Z,8.07
2018-06-02T18:32:33.022Z,5.15
2018-06-02T18:35:00.501Z,3.40
2018-06-02T18:37:27.981Z,8.20
2018-06-02T18:39:55.413Z,3.87
2018-06-02T18:42:22.908Z,3.85
2018-06-02T18:44:50.325Z,6.18
2018-06-02T18:47:17.754Z,5.70
2018-06-02T18:49:45.327Z,10.45
2018-06-02T18:52:13.615Z,4.90
2018-06-02T18:54:41.028Z,8.00
2018-06-02T18:57:08.454Z,9.25
2018-06-02T18:59:35.865Z,5.37
2018-06-02T19:02:03.293Z,6.03
2018-06-02T19:04:31.477Z,7.65
2018-06-02T19:06:58.941Z,3.85
2018-06-02T19:09:26.413Z,5.70
2018-06-02T19:11:53.885Z,8.05
2018-06-02T19:14:21.348Z,6.62
2018-06-02T19:16:48.765Z,7.68
2018-06-02T19:19:16.185Z,8.40
2018-06-02T19:21:43.601Z,5.78
2018-06-02T19:24:11.293Z,5.03
2018-06-02T19:26:38.700Z,5.45
2018-06-02T19:29:06.121Z,6.35
2018-06-02T19:31:33.544Z,6.03
2018-06-02T19:34:01.018Z,12.77
2018-06-02T19:36:28.481Z,4.78
2018-06-02T19:38:55.963Z,4.70
2018-06-02T19:41:23.368Z,7.90
2018-06-02T19:43:50.800Z,5.55
2018-06-02T19:46:18.216Z,5.37
2018-06-02T19:48:45.732Z,5.07
2018-06-02T19:51:13.316Z,9.77
2018-06-02T19:53:41.472Z,14.70
2018-06-02T19:56:09.686Z,6.82
2018-06-02T19:58:37.095Z,6.07
2018-06-02T20:01:04.529Z,6.70
2018-06-02T20:03:31.985Z,6.50
2018-06-02T20:05:59.401Z,7.70
2018-06-02T20:08:26.935Z,6.87
2018-06-02T20:10:55.101Z,7.43
2018-06-02T20:13:23.307Z,6.05
2018-06-02T20:15:50.729Z,6.20
2018-06-02T20:18:18.250Z,7.93
2018-06-02T20:20:45.717Z,8.38
2018-06-02T20:23:13.133Z,13.77
2018-06-02T20:25:40.552Z,9.68
2018-06-02T20:28:07.965Z,7.93
2018-06-02T20:30:35.603Z,10.90
2018-06-02T20:33:03.892Z,8.90
2018-06-02T20:35:32.062Z,5.70
2018-06-02T20:37:59.536Z,8.57
2018-06-02T20:40:27.022Z,10.50
2018-06-02T20:42:54.434Z,9.88
2018-06-02T20:45:21.848Z,9.98
2018-06-02T20:47:49.261Z,8.57
2018-06-02T20:50:16.690Z,7.07
2018-06-02T20:52:44.100Z,8.60
2018-06-02T20:55:11.632Z,7.07
2018-06-02T20:57:39.056Z,7.10
2018-06-02T21:00:06.472Z,7.90
2018-06-02T21:02:33.887Z,6.80
2018-06-02T21:05:01.309Z,11.35
2018-06-02T21:07:28.733Z,15.05
2018-06-02T21:09:56.249Z,10.02
2018-06-02T21:12:23.686Z,6.80
2018-06-02T21:14:51.202Z,7.55
2018-06-02T21:17:18.614Z,5.82
2018-06-02T21:19:46.029Z,8.00
2018-06-02T21:22:13.440Z,7.60
2018-06-02T21:24:40.859Z,8.70
2018-06-02T21:27:08.341Z,5.75
2018-06-02T21:29:35.805Z,8.15
2018-06-02T21:32:03.221Z,12.90
2018-06-02T21:34:30.628Z,8.50
2018-06-02T21:36:58.813Z,8.45
2018-06-02T21:39:26.997Z,6.70
2018-06-02T21:41:55.181Z,7.60
2018-06-02T21:44:23.365Z,9.98
2018-06-02T21:46:51.557Z,9.60
2018-06-02T21:49:19.749Z,9.50
2018-06-02T21:51:47.948Z,8.70
2018-06-02T21:54:15.416Z,7.37
2018-06-02T21:56:42.897Z,7.87
2018-06-02T21:59:11.077Z,8.63
2018-06-02T22:01:38.501Z,16.10
2018-06-02T22:04:05.923Z,6.50
2018-06-02T22:06:33.389Z,6.90
2018-06-02T22:09:00.796Z,8.73
2018-06-02T22:11:28.217Z,7.75
2018-06-02T22:13:55.633Z,10.13
2018-06-02T22:16:23.052Z,7.45
2018-06-02T22:18:51.233Z,10.13
2018-06-02T22:21:19.417Z,6.53
2018-06-02T22:23:47.640Z,8.00
2018-06-02T22:26:15.051Z,6.97
2018-06-02T22:28:42.461Z,8.07
2018-06-02T22:31:09.893Z,12.18
2018-06-02T22:33:38.069Z,9.30
2018-06-02T22:36:05.490Z,9.27
2018-06-02T22:38:32.904Z,7.75
2018-06-02T22:41:00.547Z,7.95
2018-06-02T22:43:27.964Z,7.55
2018-06-02T22:45:55.463Z,6.62
2018-06-02T22:48:22.882Z,7.57
2018-06-02T22:50:50.313Z,8.35
2018-06-02T22:53:17.810Z,8.52
2018-06-02T22:55:45.237Z,9.65
2018-06-02T22:58:13.433Z,7.40
2018-06-02T23:00:40.844Z,7.35
2018-06-02T23:03:08.271Z,9.40
2018-06-02T23:05:36.437Z,8.95
2018-06-02T23:08:04.635Z,9.95
2018-06-02T23:10:32.932Z,10.43
2018-06-02T23:13:00.356Z,10.43
2018-06-02T23:15:27.771Z,9.73
2018-06-02T23:17:55.251Z,8.43
2018-06-02T23:20:22.668Z,7.85
2018-06-02T23:22:50.089Z,8.13
2018-06-02T23:25:17.506Z,6.57
2018-06-02T23:27:44.926Z,6.37
2018-06-02T23:30:12.328Z,9.32
2018-06-02T23:32:39.775Z,7.35
2018-06-02T23:35:07.173Z,6.72
2018-06-02T23:37:34.684Z,7.68
2018-06-02T23:40:02.863Z,8.23
2018-06-02T23:42:31.047Z,8.02
2018-06-02T23:44:59.252Z,7.28
2018-06-02T23:47:26.730Z,8.25
2018-06-02T23:49:54.146Z,10.20
2018-06-02T23:52:21.574Z,12.13
2018-06-02T23:54:48.989Z,11.95
2018-06-02T23:57:16.521Z,10.27
2018-06-02T23:59:43.942Z,7.82
